Alma, Missouri
Current Conditions -  °F | °C
As of 9:15 AM on Sunday 23 Nov 2014 (Local Time) from KMHL Reporting Station
Haze Haze  
Wind Chill: 13°   Ceiling: 1900
Heat Index: 13°   Visibility: 4mi
Dew Point: 12°   Wind: 12mph
Humidity: 94%   Direction: 150°SSE
Pressure: 29.56"   Gusts: NA
Location:  39.1°N, 93.55°W
Report Text: KMHL 231515Z AUTO 15010KT 4SM BR SCT010 BKN019 OVC025 13/12 A2956 RMK AO2
Loading
Personal Weather Stations






























Interactive Weather Map New forecast layout! Learn more

10-Day Weather Forecast

Advertisements
Track Severe Weather on mobile